Thalia — FPCS — position and weather

sailwx.info

Track history (hours):
 
Tides and Currents Weather Stations Pressure Air Temp Water Temp Dewpoint Dewpoint Depression Visibility Wind Speed Wind Dir Waves Ship Positions

Oceanographic research ship Thalia (France)

Detailed information on ship capabilities available from University of Delaware's Ocean Information Center.

Last reported at 2017-Feb-22 16:33 UTC. Time now 2017-Feb-22 17:26 UTC.
Position N 48°00' W 004°42'.

Length 25 m; beam 7 m.

MMSI: 227270000.

Date/timePositionNaut miles runAvg speedWind from/ knotsBaromVisibWave heightAir tempDewpointWater temp
2017-Feb-22 16:33N 48°00' W 004°42'50 5.5
2017-Feb-22 07:33N 47°42' W 003°33'8 7.9
2017-Feb-22 06:33N 47°43' W 003°22'0 0.2
2017-Feb-22 05:33N 47°44' W 003°22'0 0.0
2017-Feb-22 04:32N 47°44' W 003°22'0 0.0
2017-Feb-22 01:28N 47°44' W 003°22'0 0.0
2017-Feb-22 00:31N 47°44' W 003°22'0 0.0
2017-Feb-21 23:33N 47°44' W 003°22'0 0.0
2017-Feb-21 22:33N 47°44' W 003°22'0 0.0
2017-Feb-21 21:32N 47°44' W 003°22'0 0.0
2017-Feb-21 20:32N 47°44' W 003°22'0 0.0
2017-Feb-21 19:31N 47°44' W 003°22'0 0.0
2017-Feb-21 18:31N 47°44' W 003°22'0 0.0
2017-Feb-21 17:34N 47°44' W 003°22'3 3.0
2017-Feb-21 16:33N 47°41' W 003°22'4 4.0
2017-Feb-21 15:33N 47°39' W 003°17'7 6.8
2017-Feb-21 14:34N 47°33' W 003°12'8 7.6
2017-Feb-21 13:33N 47°28' W 003°03'2 2.4
2017-Feb-21 12:33N 47°27' W 003°00'7 6.9
2017-Feb-21 11:33N 47°24' W 002°51'2 2.5
2017-Feb-21 10:33N 47°25' W 002°47'9 9.0
2017-Feb-21 09:33N 47°28' W 002°34'2 1.9
2017-Feb-21 08:33N 47°26' W 002°34'4 4.1
2017-Feb-21 07:33N 47°22' W 002°37'4 0.3
2017-Feb-20 18:15N 47°21' W 002°31'0 0.0
2017-Feb-20 17:33N 47°21' W 002°31'5 4.7
2017-Feb-20 16:33N 47°22' W 002°37'1010.2
2017-Feb-20 15:33N 47°27' W 002°51'6 5.8
2017-Feb-20 14:33N 47°32' W 002°56'8 8.3
2017-Feb-20 13:33N 47°25' W 003°04'6 5.8
2017-Feb-20 12:31N 47°20' W 003°08'6 6.5
2017-Feb-20 11:33N 47°26' W 003°11'1010.2
2017-Feb-20 10:33N 47°35' W 003°17'9 8.7
2017-Feb-20 09:33N 47°43' W 003°22'0 0.2
2017-Feb-20 07:33N 47°44' W 003°22'0 0.0
2017-Feb-20 05:32N 47°44' W 003°22'0 0.0
2017-Feb-20 04:32N 47°44' W 003°22'0 0.0
2017-Feb-20 03:26N 47°44' W 003°22'0 0.0
2017-Feb-20 02:31N 47°44' W 003°22'0 0.0
2017-Feb-20 01:30N 47°44' W 003°22'0 0.0
2017-Feb-20 00:33N 47°44' W 003°22'0 0.0
2017-Feb-19 22:32N 47°44' W 003°22'0 0.0
2017-Feb-19 21:32N 47°44' W 003°22'0 0.0
2017-Feb-19 20:29N 47°44' W 003°22'0 0.0
2017-Feb-19 19:31N 47°44' W 003°22'0 0.0
2017-Feb-19 18:30N 47°44' W 003°22'0 0.0
2017-Feb-19 17:33N 47°44' W 003°22'0 0.0
2017-Feb-19 15:32N 47°44' W 003°22'0 0.0
2017-Feb-19 14:29N 47°44' W 003°22'0 0.0
2017-Feb-19 13:32N 47°44' W 003°22'0 0.0
2017-Feb-19 12:31N 47°44' W 003°22'0 0.0
2017-Feb-19 11:19N 47°44' W 003°22'0 0.0
2017-Feb-19 10:33N 47°44' W 003°22'0 0.0
2017-Feb-19 09:06N 47°44' W 003°22'0 0.0
2017-Feb-19 08:32N 47°44' W 003°22'0 0.0
2017-Feb-19 07:32N 47°44' W 003°22'0 0.0
2017-Feb-19 06:28N 47°44' W 003°22'0 0.0
2017-Feb-19 05:31N 47°44' W 003°22'0 0.0
2017-Feb-19 04:22N 47°44' W 003°22'0 0.0
2017-Feb-19 03:33N 47°44' W 003°22'0 0.0
2017-Feb-19 02:08N 47°44' W 003°22'0 0.0
2017-Feb-19 01:32N 47°44' W 003°22'0 0.0
2017-Feb-18 23:31N 47°44' W 003°22'0 0.0
2017-Feb-18 22:31N 47°44' W 003°22'0 0.0
2017-Feb-18 21:31N 47°44' W 003°22'0 0.0
2017-Feb-18 20:33N 47°44' W 003°22'0 0.0
2017-Feb-18 19:12N 47°44' W 003°22'0 0.0
2017-Feb-18 18:29N 47°44' W 003°22'0 0.0
2017-Feb-18 16:31N 47°44' W 003°22'0 0.0
2017-Feb-18 15:28N 47°44' W 003°22'0 0.0
2017-Feb-18 14:30N 47°44' W 003°22'0 0.0
2017-Feb-18 12:26N 47°44' W 003°22'0 0.0
2017-Feb-18 11:32N 47°44' W 003°22'0 0.0
2017-Feb-18 10:32N 47°44' W 003°22'0 0.0
2017-Feb-18 09:31N 47°44' W 003°22'0 0.0
2017-Feb-18 08:31N 47°44' W 003°22'0 0.0
2017-Feb-18 07:33N 47°44' W 003°22'0 0.0
2017-Feb-18 06:33N 47°44' W 003°22'0 0.0
2017-Feb-18 05:32N 47°44' W 003°22'0 0.0
2017-Feb-18 04:32N 47°44' W 003°22'0 0.0
2017-Feb-18 03:31N 47°44' W 003°22'0 0.0
2017-Feb-18 02:28N 47°44' W 003°22'0 0.0
2017-Feb-18 01:28N 47°44' W 003°22'0 0.0
2017-Feb-18 00:33N 47°44' W 003°22'0 0.0
2017-Feb-17 23:33N 47°44' W 003°22'0 0.0
2017-Feb-17 22:32N 47°44' W 003°22'0 0.0
2017-Feb-17 21:32N 47°44' W 003°22'0 0.0
2017-Feb-17 20:31N 47°44' W 003°22'0 0.0
2017-Feb-17 19:31N 47°44' W 003°22'0 0.0
2017-Feb-17 18:31N 47°44' W 003°22'0 0.0
2017-Feb-17 17:33N 47°44' W 003°22'0 0.0
2017-Feb-17 16:33N 47°44' W 003°22'0 0.0
2017-Feb-17 15:32N 47°44' W 003°22'0 0.0
2017-Feb-17 14:32N 47°44' W 003°22'0 0.0
2017-Feb-17 13:31N 47°44' W 003°22'4 4.2
2017-Feb-17 12:33N 47°40' W 003°21'8 7.8
2017-Feb-17 11:33N 47°33' W 003°14'8 7.8
2017-Feb-17 10:33N 47°27' W 003°07'10 9.5
2017-Feb-17 09:33N 47°20' W 002°58'9 9.5
2017-Feb-17 08:33N 47°19' W 002°44'9 2.1
2017-Feb-17 04:14N 47°21' W 002°31'0 0.0
2017-Feb-16 23:27N 47°21' W 002°31'0 0.0
2017-Feb-16 22:32N 47°21' W 002°31'0 0.0
2017-Feb-16 21:20N 47°21' W 002°31'0 0.0
2017-Feb-16 20:31N 47°21' W 002°31'0 0.0
2017-Feb-16 19:25N 47°21' W 002°31'0 0.0
2017-Feb-16 15:12N 47°21' W 002°31'5 7.8
2017-Feb-16 14:33N 47°23' W 002°37'4 4.3
2017-Feb-16 13:33N 47°28' W 002°39'2 1.9
2017-Feb-16 12:33N 47°26' W 002°39'4 4.0
2017-Feb-16 11:33N 47°22' W 002°36'4 3.8
2017-Feb-16 10:33N 47°21' W 002°31'0 0.0
2017-Feb-16 09:33N 47°21' W 002°31'0 0.0
2017-Feb-16 08:21N 47°21' W 002°31'0 0.0
2017-Feb-16 06:27N 47°21' W 002°31'0 0.0
2017-Feb-16 05:33N 47°21' W 002°31'0 0.0
2017-Feb-16 02:27N 47°21' W 002°31'0 0.0
2017-Feb-16 00:24N 47°21' W 002°31'0 0.0
2017-Feb-15 21:15N 47°21' W 002°31'0 0.0
2017-Feb-15 20:33N 47°21' W 002°31'0 0.0
2017-Feb-15 19:30N 47°21' W 002°31'0 0.0
2017-Feb-15 18:23N 47°21' W 002°31'0 0.0
2017-Feb-15 17:20N 47°21' W 002°31'6 2.1
2017-Feb-15 14:33N 47°19' W 002°39'1010.2
2017-Feb-15 13:33N 47°19' W 002°55'10 9.4
2017-Feb-15 12:30N 47°23' W 003°08'9 9.0
2017-Feb-15 11:33N 47°27' W 003°19'9 9.5
2017-Feb-15 10:33N 47°33' W 003°30'10 9.7
2017-Feb-15 09:33N 47°39' W 003°41'  
Track history (hours):
 
Tides and Currents Weather Stations Pressure Air Temp Water Temp Dewpoint Dewpoint Depression Visibility Wind Speed Wind Dir Waves Ship Positions

Oceanographic research ship Thalia (France)

Detailed information on ship capabilities available from University of Delaware's Ocean Information Center.

Last reported at 2017-Feb-22 16:33 UTC. Time now 2017-Feb-22 17:26 UTC.
Position N 48°00' W 004°42'.

Length 25 m; beam 7 m.

MMSI: 227270000.

Date/timePositionNaut miles runAvg speedWind from/ knotsBaromVisibWave heightAir tempDewpointWater temp
2017-Feb-22 16:33N 48°00' W 004°42'50 5.5
2017-Feb-22 07:33N 47°42' W 003°33'8 7.9
2017-Feb-22 06:33N 47°43' W 003°22'0 0.2
2017-Feb-22 05:33N 47°44' W 003°22'0 0.0
2017-Feb-22 04:32N 47°44' W 003°22'0 0.0
2017-Feb-22 01:28N 47°44' W 003°22'0 0.0
2017-Feb-22 00:31N 47°44' W 003°22'0 0.0
2017-Feb-21 23:33N 47°44' W 003°22'0 0.0
2017-Feb-21 22:33N 47°44' W 003°22'0 0.0
2017-Feb-21 21:32N 47°44' W 003°22'0 0.0
2017-Feb-21 20:32N 47°44' W 003°22'0 0.0
2017-Feb-21 19:31N 47°44' W 003°22'0 0.0
2017-Feb-21 18:31N 47°44' W 003°22'0 0.0
2017-Feb-21 17:34N 47°44' W 003°22'3 3.0
2017-Feb-21 16:33N 47°41' W 003°22'4 4.0
2017-Feb-21 15:33N 47°39' W 003°17'7 6.8
2017-Feb-21 14:34N 47°33' W 003°12'8 7.6
2017-Feb-21 13:33N 47°28' W 003°03'2 2.4
2017-Feb-21 12:33N 47°27' W 003°00'7 6.9
2017-Feb-21 11:33N 47°24' W 002°51'2 2.5
2017-Feb-21 10:33N 47°25' W 002°47'9 9.0
2017-Feb-21 09:33N 47°28' W 002°34'2 1.9
2017-Feb-21 08:33N 47°26' W 002°34'4 4.1
2017-Feb-21 07:33N 47°22' W 002°37'4 0.3
2017-Feb-20 18:15N 47°21' W 002°31'0 0.0
2017-Feb-20 17:33N 47°21' W 002°31'5 4.7
2017-Feb-20 16:33N 47°22' W 002°37'1010.2
2017-Feb-20 15:33N 47°27' W 002°51'6 5.8
2017-Feb-20 14:33N 47°32' W 002°56'8 8.3
2017-Feb-20 13:33N 47°25' W 003°04'6 5.8
2017-Feb-20 12:31N 47°20' W 003°08'6 6.5
2017-Feb-20 11:33N 47°26' W 003°11'1010.2
2017-Feb-20 10:33N 47°35' W 003°17'9 8.7
2017-Feb-20 09:33N 47°43' W 003°22'0 0.2
2017-Feb-20 07:33N 47°44' W 003°22'0 0.0
2017-Feb-20 05:32N 47°44' W 003°22'0 0.0
2017-Feb-20 04:32N 47°44' W 003°22'0 0.0
2017-Feb-20 03:26N 47°44' W 003°22'0 0.0
2017-Feb-20 02:31N 47°44' W 003°22'0 0.0
2017-Feb-20 01:30N 47°44' W 003°22'0 0.0
2017-Feb-20 00:33N 47°44' W 003°22'0 0.0
2017-Feb-19 22:32N 47°44' W 003°22'0 0.0
2017-Feb-19 21:32N 47°44' W 003°22'0 0.0
2017-Feb-19 20:29N 47°44' W 003°22'0 0.0
2017-Feb-19 19:31N 47°44' W 003°22'0 0.0
2017-Feb-19 18:30N 47°44' W 003°22'0 0.0
2017-Feb-19 17:33N 47°44' W 003°22'0 0.0
2017-Feb-19 15:32N 47°44' W 003°22'0 0.0
2017-Feb-19 14:29N 47°44' W 003°22'0 0.0
2017-Feb-19 13:32N 47°44' W 003°22'0 0.0
2017-Feb-19 12:31N 47°44' W 003°22'0 0.0
2017-Feb-19 11:19N 47°44' W 003°22'0 0.0
2017-Feb-19 10:33N 47°44' W 003°22'0 0.0
2017-Feb-19 09:06N 47°44' W 003°22'0 0.0
2017-Feb-19 08:32N 47°44' W 003°22'0 0.0
2017-Feb-19 07:32N 47°44' W 003°22'0 0.0
2017-Feb-19 06:28N 47°44' W 003°22'0 0.0
2017-Feb-19 05:31N 47°44' W 003°22'0 0.0
2017-Feb-19 04:22N 47°44' W 003°22'0 0.0
2017-Feb-19 03:33N 47°44' W 003°22'0 0.0
2017-Feb-19 02:08N 47°44' W 003°22'0 0.0
2017-Feb-19 01:32N 47°44' W 003°22'0 0.0
2017-Feb-18 23:31N 47°44' W 003°22'0 0.0
2017-Feb-18 22:31N 47°44' W 003°22'0 0.0
2017-Feb-18 21:31N 47°44' W 003°22'0 0.0
2017-Feb-18 20:33N 47°44' W 003°22'0 0.0
2017-Feb-18 19:12N 47°44' W 003°22'0 0.0
2017-Feb-18 18:29N 47°44' W 003°22'0 0.0
2017-Feb-18 16:31N 47°44' W 003°22'0 0.0
2017-Feb-18 15:28N 47°44' W 003°22'0 0.0
2017-Feb-18 14:30N 47°44' W 003°22'0 0.0
2017-Feb-18 12:26N 47°44' W 003°22'0 0.0
2017-Feb-18 11:32N 47°44' W 003°22'0 0.0
2017-Feb-18 10:32N 47°44' W 003°22'0 0.0
2017-Feb-18 09:31N 47°44' W 003°22'0 0.0
2017-Feb-18 08:31N 47°44' W 003°22'0 0.0
2017-Feb-18 07:33N 47°44' W 003°22'0 0.0
2017-Feb-18 06:33N 47°44' W 003°22'0 0.0
2017-Feb-18 05:32N 47°44' W 003°22'0 0.0
2017-Feb-18 04:32N 47°44' W 003°22'0 0.0
2017-Feb-18 03:31N 47°44' W 003°22'0 0.0
2017-Feb-18 02:28N 47°44' W 003°22'0 0.0
2017-Feb-18 01:28N 47°44' W 003°22'0 0.0
2017-Feb-18 00:33N 47°44' W 003°22'0 0.0
2017-Feb-17 23:33N 47°44' W 003°22'0 0.0
2017-Feb-17 22:32N 47°44' W 003°22'0 0.0
2017-Feb-17 21:32N 47°44' W 003°22'0 0.0
2017-Feb-17 20:31N 47°44' W 003°22'0 0.0
2017-Feb-17 19:31N 47°44' W 003°22'0 0.0
2017-Feb-17 18:31N 47°44' W 003°22'0 0.0
2017-Feb-17 17:33N 47°44' W 003°22'0 0.0
2017-Feb-17 16:33N 47°44' W 003°22'0 0.0
2017-Feb-17 15:32N 47°44' W 003°22'0 0.0
2017-Feb-17 14:32N 47°44' W 003°22'0 0.0
2017-Feb-17 13:31N 47°44' W 003°22'4 4.2
2017-Feb-17 12:33N 47°40' W 003°21'8 7.8
2017-Feb-17 11:33N 47°33' W 003°14'8 7.8
2017-Feb-17 10:33N 47°27' W 003°07'10 9.5
2017-Feb-17 09:33N 47°20' W 002°58'9 9.5
2017-Feb-17 08:33N 47°19' W 002°44'9 2.1
2017-Feb-17 04:14N 47°21' W 002°31'0 0.0
2017-Feb-16 23:27N 47°21' W 002°31'0 0.0
2017-Feb-16 22:32N 47°21' W 002°31'0 0.0
2017-Feb-16 21:20N 47°21' W 002°31'0 0.0
2017-Feb-16 20:31N 47°21' W 002°31'0 0.0
2017-Feb-16 19:25N 47°21' W 002°31'0 0.0
2017-Feb-16 15:12N 47°21' W 002°31'5 7.8
2017-Feb-16 14:33N 47°23' W 002°37'4 4.3
2017-Feb-16 13:33N 47°28' W 002°39'2 1.9
2017-Feb-16 12:33N 47°26' W 002°39'4 4.0
2017-Feb-16 11:33N 47°22' W 002°36'4 3.8
2017-Feb-16 10:33N 47°21' W 002°31'0 0.0
2017-Feb-16 09:33N 47°21' W 002°31'0 0.0
2017-Feb-16 08:21N 47°21' W 002°31'0 0.0
2017-Feb-16 06:27N 47°21' W 002°31'0 0.0
2017-Feb-16 05:33N 47°21' W 002°31'0 0.0
2017-Feb-16 02:27N 47°21' W 002°31'0 0.0
2017-Feb-16 00:24N 47°21' W 002°31'0 0.0
2017-Feb-15 21:15N 47°21' W 002°31'0 0.0
2017-Feb-15 20:33N 47°21' W 002°31'0 0.0
2017-Feb-15 19:30N 47°21' W 002°31'0 0.0
2017-Feb-15 18:23N 47°21' W 002°31'0 0.0
2017-Feb-15 17:20N 47°21' W 002°31'6 2.1
2017-Feb-15 14:33N 47°19' W 002°39'1010.2
2017-Feb-15 13:33N 47°19' W 002°55'10 9.4
2017-Feb-15 12:30N 47°23' W 003°08'9 9.0
2017-Feb-15 11:33N 47°27' W 003°19'9 9.5
2017-Feb-15 10:33N 47°33' W 003°30'10 9.7
2017-Feb-15 09:33N 47°39' W 003°41'  

Dump ship's entire track history